Time;durP1;ratioP1;P1;durP2;ratioP2;P2;SDS_P1;SDS_P2;PMS_P1;PMS_P2;Temp;Humidity;BMP_temperature;BMP_pressure;BME280_temperature;BME280_humidity;BME280_pressure;Samples;Min_cycle;Max_cycle;Signal;HPM_P1;HPM_P2
2023/03/22 00:01:09;;;;;;;;;6.50;5.00;;;;;9.75;77.09;100298.97;4988566;28;45452;-72
2023/03/22 00:03:35;;;;;;;;;5.25;4.00;;;;;9.75;76.47;100289.41;4997018;28;46488;-73
2023/03/22 00:06:00;;;;;;;;;4.50;4.25;;;;;9.82;76.67;100300.88;4997372;28;45546;-73
2023/03/22 00:08:26;;;;;;;;;5.50;4.00;;;;;9.75;77.39;100293.75;4997498;28;45498;-73
2023/03/22 00:10:51;;;;;;;;;5.00;5.00;;;;;9.74;77.46;100290.22;4997085;28;45505;-73
2023/03/22 00:13:17;;;;;;;;;5.00;4.25;;;;;9.72;77.68;100294.50;4997361;28;46038;-74
2023/03/22 00:15:44;;;;;;;;;4.00;4.00;;;;;9.75;77.44;100288.53;4996657;28;45463;-73
2023/03/22 00:18:11;;;;;;;;;6.00;5.50;;;;;9.64;77.65;100276.88;4996981;28;45590;-72
2023/03/22 00:20:38;;;;;;;;;5.00;5.00;;;;;9.61;77.29;100288.13;4988852;28;45515;-73
2023/03/22 00:23:03;;;;;;;;;6.25;5.00;;;;;9.56;77.67;100292.31;4996563;28;45505;-73
2023/03/22 00:25:29;;;;;;;;;4.75;4.75;;;;;9.49;77.47;100286.03;4996626;28;45488;-71
2023/03/22 00:27:55;;;;;;;;;3.75;3.75;;;;;9.42;78.13;100278.84;4997454;28;45347;-73
2023/03/22 00:30:20;;;;;;;;;4.50;4.25;;;;;9.32;78.97;100269.84;4996515;28;45365;-74
2023/03/22 00:32:46;;;;;;;;;5.00;5.00;;;;;9.34;78.74;100281.22;4996220;28;45878;-71
2023/03/22 00:35:12;;;;;;;;;4.50;4.00;;;;;9.33;79.07;100284.69;4995750;28;45297;-73
2023/03/22 00:37:37;;;;;;;;;3.00;3.00;;;;;9.40;79.99;100288.34;4995378;28;45436;-74
2023/03/22 00:40:07;;;;;;;;;7.75;4.25;;;;;9.43;80.01;100295.38;5011811;28;45651;-73
2023/03/22 00:42:37;;;;;;;;;4.00;4.00;;;;;9.39;79.26;100301.31;4980541;28;45440;-74
2023/03/22 00:45:05;;;;;;;;;5.00;5.00;;;;;9.30;78.48;100287.19;4992537;28;45538;-73
2023/03/22 00:47:31;;;;;;;;;3.00;3.00;;;;;9.38;77.69;100283.94;4996346;28;45490;-74
2023/03/22 00:49:57;;;;;;;;;5.00;4.00;;;;;9.39;78.18;100289.19;4996648;28;45471;-73
2023/03/22 00:52:23;;;;;;;;;4.75;4.25;;;;;9.39;78.20;100280.47;4996160;28;46200;-73
2023/03/22 00:54:57;;;;;;;;;6.00;6.00;;;;;9.35;78.12;100267.38;5080409;27;45396;-73
2023/03/22 00:57:24;;;;;;;;;4.00;4.00;;;;;9.44;78.09;100268.47;5061747;28;45662;-73
2023/03/22 00:59:51;;;;;;;;;5.00;5.00;;;;;9.42;77.80;100250.16;5060347;28;45508;-72
2023/03/22 01:02:17;;;;;;;;;4.50;4.50;;;;;9.45;78.98;100244.16;5064985;28;45492;-72
2023/03/22 01:04:45;;;;;;;;;5.00;5.00;;;;;9.50;78.63;100245.19;5054393;28;46187;-73
2023/03/22 01:07:16;;;;;;;;;6.00;5.00;;;;;9.48;78.15;100245.13;5063287;28;45445;-73
2023/03/22 01:09:45;;;;;;;;;5.00;4.75;;;;;9.50;78.13;100247.78;5061659;28;45437;-73
2023/03/22 01:12:11;;;;;;;;;5.00;5.00;;;;;9.30;78.42;100232.44;5063577;28;45331;-73
2023/03/22 01:14:36;;;;;;;;;6.00;5.00;;;;;9.23;78.43;100220.06;5062509;28;45818;-73
2023/03/22 01:17:02;;;;;;;;;4.00;4.00;;;;;9.24;79.01;100234.00;5072588;28;45314;-73
2023/03/22 01:19:28;;;;;;;;;5.50;4.50;;;;;9.29;78.81;100230.69;5074564;28;45381;-73
2023/03/22 01:21:54;;;;;;;;;5.50;5.00;;;;;9.25;79.11;100220.09;5071623;28;45623;-73
2023/03/22 01:24:20;;;;;;;;;5.75;4.00;;;;;9.29;78.63;100224.56;5061846;28;45220;-72
2023/03/22 01:26:45;;;;;;;;;6.50;5.00;;;;;9.29;78.65;100216.75;5068303;28;45287;-73
2023/03/22 01:29:12;;;;;;;;;5.25;5.25;;;;;9.21;78.59;100208.72;5065473;28;45247;-71
2023/03/22 01:31:38;;;;;;;;;5.00;5.00;;;;;9.21;78.10;100211.34;5065907;28;45314;-72
2023/03/22 01:34:04;;;;;;;;;3.75;3.75;;;;;9.25;77.75;100221.00;5062228;28;45483;-73
2023/03/22 01:36:30;;;;;;;;;4.25;4.00;;;;;9.22;77.28;100217.41;5052076;28;45439;-74
2023/03/22 01:38:56;;;;;;;;;5.25;5.25;;;;;9.17;77.29;100206.84;5058150;28;45502;-76
2023/03/22 01:41:28;;;;;;;;;4.50;4.50;;;;;9.17;77.10;100214.66;5056550;28;45376;-72
2023/03/22 01:44:12;;;;;;;;;5.25;5.00;;;;;9.15;77.29;100208.50;5039396;28;46563;-72
2023/03/22 01:46:38;;;;;;;;;5.25;4.75;;;;;9.10;77.22;100194.47;5054673;28;45418;-74
2023/03/22 01:49:08;;;;;;;;;6.50;6.00;;;;;9.11;77.52;100196.22;5054488;28;45638;-73
2023/03/22 01:51:34;;;;;;;;;5.25;5.25;;;;;9.05;76.88;100185.63;5054901;28;45335;-74
2023/03/22 01:54:07;;;;;;;;;4.50;4.50;;;;;9.08;76.62;100193.53;5070706;27;45441;-71
2023/03/22 01:56:36;;;;;;;;;5.25;5.25;;;;;9.08;76.53;100196.16;5078971;27;45466;-74
2023/03/22 01:59:03;;;;;;;;;3.50;3.00;;;;;9.05;76.75;100191.75;5079583;27;45494;-73
2023/03/22 02:01:29;;;;;;;;;6.00;4.75;;;;;9.03;77.40;100189.91;5075517;27;45365;-73
2023/03/22 02:04:03;;;;;;;;;7.75;5.25;;;;;9.01;77.93;100187.25;5083928;27;45959;-74
2023/03/22 02:06:31;;;;;;;;;6.75;6.50;;;;;8.95;77.42;100187.97;5064754;28;45429;-73
2023/03/22 02:08:57;;;;;;;;;5.50;5.25;;;;;8.91;77.56;100186.09;5062073;28;45628;-74
2023/03/22 02:11:40;;;;;;;;;6.50;5.00;;;;;8.87;77.81;100168.63;5061477;28;45311;-74
2023/03/22 02:14:15;;;;;;;;;4.00;4.00;;;;;8.96;77.47;100181.91;5054523;28;45996;-74
2023/03/22 02:17:10;;;;;;;;;6.00;5.75;;;;;8.98;77.34;100178.47;5064337;28;45536;-74
2023/03/22 02:19:41;;;;;;;;;5.50;5.25;;;;;8.95;76.46;100171.44;5009044;28;45551;-73
2023/03/22 02:22:45;;;;;;;;;6.00;4.50;;;;;8.95;76.46;100168.81;5068687;28;45465;-74
2023/03/22 02:25:30;;;;;;;;;4.50;4.00;;;;;8.93;77.21;100174.00;5061195;28;46005;-74
2023/03/22 02:28:25;;;;;;;;;6.50;6.25;;;;;8.91;78.18;100170.47;5063053;28;45551;-73
2023/03/22 02:31:11;;;;;;;;;7.50;6.75;;;;;8.88;78.33;100159.94;5058922;28;45434;-73
2023/03/22 02:34:05;;;;;;;;;5.75;5.75;;;;;8.84;77.55;100158.09;5064860;28;45758;-74
2023/03/22 02:36:52;;;;;;;;;5.50;4.00;;;;;8.88;78.05;100164.28;5064786;28;45966;-73
2023/03/22 02:39:33;;;;;;;;;7.50;7.50;;;;;8.81;78.29;100171.00;5061023;28;45374;-74
2023/03/22 02:42:20;;;;;;;;;5.25;4.75;;;;;8.74;77.80;100161.25;5060912;28;45320;-74
2023/03/22 02:45:05;;;;;;;;;6.50;6.50;;;;;8.73;77.75;100151.66;5064080;28;45391;-73
2023/03/22 02:47:33;;;;;;;;;8.00;8.00;;;;;8.75;78.20;100150.88;5064201;28;46023;-74
2023/03/22 02:50:19;;;;;;;;;8.25;8.25;;;;;8.76;78.76;100136.13;5062727;28;45602;-74
2023/03/22 02:52:57;;;;;;;;;9.00;8.00;;;;;8.79;79.17;100133.63;5059649;28;45320;-70
2023/03/22 02:55:46;;;;;;;;;7.00;6.00;;;;;8.83;79.08;100125.06;5060765;28;45391;-72
2023/03/22 02:58:18;;;;;;;;;7.75;7.00;;;;;8.84;78.63;100123.34;5047878;28;46107;-74
2023/03/22 03:00:48;;;;;;;;;8.00;7.00;;;;;8.86;78.69;100119.94;5038732;28;45896;-74
2023/03/22 03:03:17;;;;;;;;;7.00;6.00;;;;;8.82;78.51;100102.47;5058171;28;45434;-73
2023/03/22 03:05:47;;;;;;;;;7.50;7.00;;;;;8.91;78.17;100114.88;5069355;28;45398;-74
2023/03/22 03:08:16;;;;;;;;;8.00;8.00;;;;;8.89;78.10;100100.91;5064168;28;46218;-74
2023/03/22 03:10:43;;;;;;;;;7.50;7.00;;;;;8.86;77.82;100088.69;5061112;28;45588;-73
2023/03/22 03:13:13;;;;;;;;;8.00;5.25;;;;;8.87;78.06;100093.06;5062538;28;45422;-74
2023/03/22 03:15:44;;;;;;;;;6.75;4.75;;;;;8.89;77.93;100085.28;5063388;28;45465;-73
2023/03/22 03:18:18;;;;;;;;;7.50;7.50;;;;;8.90;77.94;100090.53;5061459;28;45964;-74
2023/03/22 03:20:46;;;;;;;;;7.00;6.25;;;;;8.87;78.28;100090.47;5055098;28;45802;-74
2023/03/22 03:23:36;;;;;;;;;9.50;8.75;;;;;8.88;78.46;100087.00;5060460;28;45430;-74
2023/03/22 03:26:29;;;;;;;;;7.50;7.25;;;;;8.89;78.31;100075.78;5060322;28;45402;-74
2023/03/22 03:29:01;;;;;;;;;9.00;8.00;;;;;8.93;78.25;100084.53;5039614;28;46222;-72
2023/03/22 03:31:39;;;;;;;;;9.75;7.75;;;;;8.93;78.31;100079.31;5059464;28;45493;-74
2023/03/22 03:34:30;;;;;;;;;7.50;7.00;;;;;8.89;78.70;100061.84;5045581;28;45577;-73
2023/03/22 03:37:03;;;;;;;;;8.00;8.00;;;;;8.98;77.73;100074.28;5037227;28;45453;-73
2023/03/22 03:39:33;;;;;;;;;9.00;8.25;;;;;8.96;77.66;100066.41;5060036;28;45575;-74
2023/03/22 03:42:01;;;;;;;;;8.00;8.00;;;;;8.97;79.13;100068.16;5065333;28;45203;-73
2023/03/22 03:44:29;;;;;;;;;9.00;8.25;;;;;9.02;78.99;100069.19;5064261;28;45489;-73
2023/03/22 03:46:56;;;;;;;;;7.50;7.00;;;;;9.08;78.61;100064.13;5039591;28;45347;-73
2023/03/22 03:49:23;;;;;;;;;7.75;7.75;;;;;9.11;78.20;100060.72;5066212;28;45520;-73
2023/03/22 03:51:52;;;;;;;;;7.00;7.00;;;;;9.13;77.71;100059.03;5040410;28;45494;-72
2023/03/22 03:54:19;;;;;;;;;5.25;5.25;;;;;9.11;77.65;100053.81;5069720;28;45393;-74
2023/03/22 03:56:49;;;;;;;;;7.50;6.50;;;;;9.09;77.47;100055.50;5058276;28;45452;-73
2023/03/22 03:59:16;;;;;;;;;9.00;7.50;;;;;8.99;77.36;100034.34;5066130;28;45464;-74
2023/03/22 04:01:52;;;;;;;;;19.00;17.25;;;;;9.07;77.45;100051.97;5068914;28;45553;-74
2023/03/22 04:04:26;;;;;;;;;10.25;9.50;;;;;9.04;76.88;100036.22;5065302;28;45364;-74
2023/03/22 04:06:55;;;;;;;;;9.50;8.00;;;;;9.11;76.20;100045.09;5061850;28;45328;-73
2023/03/22 04:09:32;;;;;;;;;9.50;9.25;;;;;9.20;75.37;100042.75;5068556;28;46174;-73
2023/03/22 04:11:57;;;;;;;;;9.00;8.00;;;;;9.32;75.16;100042.19;5068607;28;45448;-73
2023/03/22 04:14:24;;;;;;;;;9.00;9.00;;;;;9.32;75.47;100045.69;5051658;28;45496;-73
2023/03/22 04:16:50;;;;;;;;;9.75;8.00;;;;;9.29;75.02;100034.28;5063369;28;45469;-73
2023/03/22 04:19:16;;;;;;;;;10.00;9.50;;;;;9.42;73.61;100045.94;5061303;28;46809;-74
2023/03/22 04:21:41;;;;;;;;;9.50;9.50;;;;;9.53;73.77;100041.91;5066392;28;45440;-74
2023/03/22 04:24:08;;;;;;;;;9.50;9.00;;;;;9.65;72.95;100036.09;5069751;28;45402;-74
2023/03/22 04:26:34;;;;;;;;;10.00;9.00;;;;;9.81;71.36;100046.09;5048153;28;45649;-73
2023/03/22 04:29:01;;;;;;;;;10.25;10.00;;;;;10.00;68.28;100039.56;5061337;28;46201;-74
2023/03/22 04:31:28;;;;;;;;;9.50;8.75;;;;;10.29;67.05;100036.78;5067615;28;45470;-74
2023/03/22 04:33:55;;;;;;;;;11.25;11.00;;;;;10.49;64.63;100029.44;5060809;28;45452;-73
2023/03/22 04:36:24;;;;;;;;;9.00;9.00;;;;;10.80;63.75;100044.00;5061509;28;45379;-73
2023/03/22 04:38:50;;;;;;;;;10.00;9.75;;;;;11.00;63.67;100041.84;5057628;28;45426;-73
2023/03/22 04:41:16;;;;;;;;;9.00;8.75;;;;;11.12;62.90;100036.84;5062850;28;45355;-73
2023/03/22 04:43:45;;;;;;;;;10.00;10.00;;;;;11.31;61.62;100029.34;5044427;28;45370;-73
2023/03/22 04:46:12;;;;;;;;;9.50;9.00;;;;;11.49;60.64;100034.91;5063361;28;45367;-73
2023/03/22 04:48:40;;;;;;;;;9.25;9.25;;;;;11.61;60.86;100031.63;5061055;28;46042;-73
2023/03/22 04:51:08;;;;;;;;;10.00;9.25;;;;;11.78;59.49;100020.56;5063558;28;45501;-73
2023/03/22 04:53:38;;;;;;;;;11.00;10.00;;;;;11.93;58.79;100028.69;5063760;28;45477;-72
2023/03/22 04:56:06;;;;;;;;;10.50;9.00;;;;;12.04;58.91;100021.91;5059474;28;45423;-73
2023/03/22 04:58:33;;;;;;;;;11.50;11.25;;;;;12.08;58.90;100015.84;5041294;28;45540;-73
2023/03/22 05:00:59;;;;;;;;;12.00;10.75;;;;;12.16;58.32;100017.72;5067064;28;45430;-73
2023/03/22 05:03:24;;;;;;;;;10.00;10.00;;;;;12.20;58.66;100020.41;5063777;28;45473;-73
2023/03/22 05:06:01;;;;;;;;;8.00;7.75;;;;;12.21;58.77;100016.91;5059509;28;45469;-73
2023/03/22 05:08:28;;;;;;;;;12.25;11.00;;;;;12.18;58.93;100003.78;5057419;28;45564;-74
2023/03/22 05:10:55;;;;;;;;;10.00;8.00;;;;;12.27;58.24;100010.88;5060516;28;45540;-74
2023/03/22 05:13:23;;;;;;;;;9.00;9.00;;;;;12.39;57.72;100013.69;5061529;28;45352;-73
2023/03/22 05:15:50;;;;;;;;;10.50;8.00;;;;;12.45;57.54;100008.50;5057814;28;45824;-74
2023/03/22 05:18:20;;;;;;;;;12.00;12.00;;;;;12.58;57.13;100011.31;5041044;28;46786;-73
2023/03/22 05:20:47;;;;;;;;;10.50;10.25;;;;;12.67;56.84;100016.66;5056396;28;45423;-73
2023/03/22 05:23:17;;;;;;;;;11.00;9.75;;;;;12.76;55.96;100008.94;5060332;28;45575;-72
2023/03/22 05:25:45;;;;;;;;;11.75;11.00;;;;;12.87;55.24;100012.56;5039506;28;45493;-74
2023/03/22 05:28:13;;;;;;;;;10.00;9.25;;;;;12.96;55.28;100008.31;5054101;28;45532;-73
2023/03/22 05:30:40;;;;;;;;;10.25;9.50;;;;;13.05;55.35;100008.38;5056261;28;46015;-71
2023/03/22 05:33:06;;;;;;;;;10.75;10.25;;;;;13.12;54.73;100005.84;5038330;28;45287;-73
2023/03/22 05:35:34;;;;;;;;;8.75;8.75;;;;;13.21;54.56;100007.72;5056764;28;45458;-74
2023/03/22 05:37:59;;;;;;;;;10.00;9.75;;;;;13.24;54.09;100001.63;5056007;28;45987;-74
2023/03/22 05:40:26;;;;;;;;;9.75;8.25;;;;;13.33;53.56;100007.88;5069612;28;45316;-73
2023/03/22 05:42:51;;;;;;;;;10.00;9.50;;;;;13.42;52.65;100008.81;5038894;28;45474;-74
2023/03/22 05:45:18;;;;;;;;;10.75;10.00;;;;;13.43;52.28;99987.84;5059422;28;46005;-77
2023/03/22 05:47:43;;;;;;;;;11.25;11.25;;;;;13.59;52.21;100007.25;5059573;28;46289;-73
2023/03/22 05:50:11;;;;;;;;;14.00;13.75;;;;;13.66;52.49;99995.03;5059821;28;45494;-73
2023/03/22 05:52:37;;;;;;;;;13.50;11.75;;;;;13.71;52.42;100001.22;5041869;28;45469;-76
2023/03/22 05:55:05;;;;;;;;;14.25;10.50;;;;;13.79;51.93;99996.03;5059538;28;45419;-75
2023/03/22 05:57:31;;;;;;;;;11.50;10.50;;;;;13.84;52.17;99992.56;5060128;28;45983;-75
2023/03/22 05:59:57;;;;;;;;;11.00;10.00;;;;;13.89;51.93;99990.84;5079520;28;45322;-77
2023/03/22 06:02:23;;;;;;;;;10.50;10.00;;;;;13.96;51.60;99993.53;5078921;28;45453;-76
2023/03/22 06:04:50;;;;;;;;;10.25;10.25;;;;;13.99;50.90;99986.56;5067505;28;45551;-73
2023/03/22 06:07:17;;;;;;;;;8.50;8.50;;;;;14.07;51.31;99989.25;5058687;28;45326;-73
2023/03/22 06:09:42;;;;;;;;;10.75;10.00;;;;;14.05;51.02;99975.22;5039295;28;45385;-73
2023/03/22 06:12:08;;;;;;;;;12.00;10.50;;;;;14.08;50.92;99973.47;5057965;28;45338;-73
2023/03/22 06:14:33;;;;;;;;;11.25;11.00;;;;;14.19;51.11;99984.06;5057742;28;45466;-73
2023/03/22 06:16:59;;;;;;;;;10.50;9.75;;;;;14.22;50.86;99983.19;5057535;28;45509;-73
2023/03/22 06:19:25;;;;;;;;;9.00;9.00;;;;;14.27;50.84;99981.47;5057540;28;45556;-73
2023/03/22 06:21:52;;;;;;;;;11.00;10.00;;;;;14.30;50.89;99982.38;5057527;28;45900;-74
2023/03/22 06:24:18;;;;;;;;;7.25;7.00;;;;;14.35;50.72;99976.28;5056199;28;45551;-74
2023/03/22 06:26:44;;;;;;;;;9.25;9.25;;;;;14.41;49.87;99985.06;5057022;28;45923;-74
2023/03/22 06:29:10;;;;;;;;;8.75;6.75;;;;;14.43;50.16;99980.69;5058757;28;45983;-72
2023/03/22 06:31:35;;;;;;;;;9.00;9.00;;;;;14.46;50.15;99978.09;5057635;28;45505;-73
2023/03/22 06:34:01;;;;;;;;;9.00;9.00;;;;;14.48;50.45;99978.97;5055911;28;45493;-74
2023/03/22 06:36:29;;;;;;;;;10.00;10.00;;;;;14.54;50.44;99978.09;5057148;28;45327;-74
2023/03/22 06:38:55;;;;;;;;;10.25;10.00;;;;;14.65;50.29;99979.06;5057182;28;45422;-74
2023/03/22 06:41:21;;;;;;;;;13.00;10.75;;;;;14.69;49.50;99969.44;5058292;28;45566;-73
2023/03/22 06:43:47;;;;;;;;;11.50;11.00;;;;;14.83;49.71;99991.41;5056422;28;45484;-74
2023/03/22 06:46:13;;;;;;;;;8.75;7.75;;;;;14.93;49.19;99978.31;5067815;28;45505;-73
2023/03/22 06:48:38;;;;;;;;;10.25;9.25;;;;;15.04;49.30;99993.25;5039116;28;45604;-74
2023/03/22 06:51:04;;;;;;;;;9.00;8.75;;;;;15.18;49.02;99988.03;5056720;28;45439;-75
2023/03/22 06:53:30;;;;;;;;;9.25;8.75;;;;;15.30;48.47;99984.53;5058329;28;45970;-74
2023/03/22 06:55:55;;;;;;;;;10.25;10.00;;;;;15.38;47.97;99979.25;5058575;28;45497;-73
2023/03/22 06:58:21;;;;;;;;;9.00;8.00;;;;;15.51;47.62;99981.03;5058708;28;45466;-73
2023/03/22 07:00:47;;;;;;;;;11.00;10.00;;;;;15.60;47.62;99972.28;5057917;28;45471;-72
2023/03/22 07:03:13;;;;;;;;;11.00;10.00;;;;;15.66;47.42;99973.16;5062281;28;45593;-74
2023/03/22 07:05:38;;;;;;;;;11.50;9.25;;;;;15.73;46.96;99967.91;5065632;28;46553;-75
2023/03/22 07:08:04;;;;;;;;;13.75;12.50;;;;;15.86;46.79;99981.06;5050149;28;45439;-75
2023/03/22 07:10:30;;;;;;;;;11.00;10.50;;;;;16.36;45.93;99981.00;5058198;28;45497;-74
2023/03/22 07:12:56;;;;;;;;;11.25;10.50;;;;;17.37;44.32;99984.94;5077931;28;45620;-74
2023/03/22 07:15:23;;;;;;;;;11.00;10.75;;;;;17.67;43.34;99974.16;5077338;28;46023;-74
2023/03/22 07:17:50;;;;;;;;;12.25;11.00;;;;;19.02;41.07;99976.25;5078546;28;45407;-74
2023/03/22 07:20:16;;;;;;;;;13.75;12.25;;;;;20.92;37.94;99965.91;5078676;28;45538;-74
2023/03/22 07:22:42;;;;;;;;;11.00;11.00;;;;;21.01;36.58;99969.25;5077651;28;45703;-72
2023/03/22 07:25:08;;;;;;;;;14.50;12.00;;;;;20.46;37.50;99989.81;5056845;28;45856;-74
2023/03/22 07:27:33;;;;;;;;;11.75;10.50;;;;;19.85;38.21;99983.84;5057071;28;45482;-74
2023/03/22 07:29:59;;;;;;;;;12.00;10.25;;;;;21.89;36.93;99983.13;5059845;28;45451;-74
2023/03/22 07:32:25;;;;;;;;;10.00;10.00;;;;;23.33;34.09;99991.50;5057374;28;45447;-74
2023/03/22 07:34:50;;;;;;;;;15.33;14.00;;;;;24.96;31.91;99996.59;5055656;28;46107;-74
2023/03/22 07:37:16;;;;;;;;;11.00;10.00;;;;;24.20;32.47;99986.91;5057224;28;45495;-73
2023/03/22 07:39:41;;;;;;;;;13.33;13.33;;;;;22.93;33.13;99989.19;5057561;28;45367;-74
2023/03/22 07:42:08;;;;;;;;;13.67;13.00;;;;;22.13;34.13;99996.72;5056323;28;45416;-75
2023/03/22 07:44:34;;;;;;;;;11.00;10.33;;;;;22.66;34.84;99991.75;5058652;28;45412;-74
2023/03/22 07:47:00;;;;;;;;;14.67;13.00;;;;;25.15;31.42;99999.44;5057055;28;45568;-77
2023/03/22 07:49:26;;;;;;;;;12.33;10.33;;;;;26.53;29.41;99991.97;5056743;28;45494;-76
2023/03/22 07:51:51;;;;;;;;;15.00;14.67;;;;;27.64;27.68;99994.88;5057690;28;45284;-76
2023/03/22 07:54:17;;;;;;;;;11.33;10.33;;;;;29.01;26.56;100004.75;5057470;28;46003;-76
2023/03/22 07:56:43;;;;;;;;;12.33;10.67;;;;;30.00;24.90;99997.34;5053029;28;45393;-76
2023/03/22 07:59:09;;;;;;;;;4.33;3.33;;;;;30.82;24.82;100009.44;5057938;28;45362;-76
2023/03/22 08:01:35;;;;;;;;;4.67;3.67;;;;;31.15;23.26;100010.97;5075962;27;45536;-76
2023/03/22 08:04:01;;;;;;;;;9.33;9.33;;;;;31.75;23.44;100004.38;5077463;28;46131;-74
2023/03/22 08:06:26;;;;;;;;;55.00;45.75;;;;;32.95;22.50;100015.06;5078161;28;45208;-76
2023/03/22 08:08:52;;;;;;;;;7.33;6.67;;;;;33.28;20.42;100000.06;5077750;28;45327;-77
2023/03/22 08:11:18;;;;;;;;;11.67;11.67;;;;;34.03;20.30;100004.44;5065285;28;45352;-77
2023/03/22 08:13:43;;;;;;;;;14.33;14.33;;;;;33.29;21.53;100013.50;5072989;28;45569;-76
2023/03/22 08:16:10;;;;;;;;;10.67;10.67;;;;;33.87;21.18;100005.59;5070278;28;45415;-77
2023/03/22 08:18:35;;;;;;;;;13.00;13.00;;;;;33.81;20.32;100006.06;5057483;28;45328;-77
2023/03/22 08:21:01;;;;;;;;;7.33;7.33;;;;;32.77;22.09;100013.66;5068674;28;46077;-76
2023/03/22 08:23:27;;;;;;;;;8.67;8.00;;;;;31.59;23.26;100011.78;5060161;28;45803;-76
2023/03/22 08:25:52;;;;;;;;;11.33;10.00;;;;;30.54;23.33;100010.31;5077139;28;45440;-78
2023/03/22 08:28:19;;;;;;;;;12.00;10.67;;;;;29.57;24.34;100013.31;5051223;28;45492;-77
2023/03/22 08:30:46;;;;;;;;;10.00;10.00;;;;;28.96;24.90;100029.19;5068645;28;45511;-71
2023/03/22 08:33:13;;;;;;;;;9.00;8.67;;;;;28.59;26.04;100022.28;5061678;28;46091;-77
2023/03/22 08:35:39;;;;;;;;;9.00;8.67;;;;;28.32;25.81;100016.50;5056398;28;45399;-77
2023/03/22 08:38:05;;;;;;;;;9.00;9.00;;;;;27.85;26.03;100028.66;5057492;28;46534;-77
2023/03/22 08:40:31;;;;;;;;;8.67;8.67;;;;;27.44;26.67;100023.53;5069244;28;45532;-76
2023/03/22 08:42:57;;;;;;;;;9.67;9.67;;;;;27.22;26.57;100020.09;5061348;28;46090;-76
2023/03/22 08:45:23;;;;;;;;;11.33;11.33;;;;;26.58;27.17;100017.66;5075993;28;45466;-76
2023/03/22 08:47:48;;;;;;;;;9.67;9.33;;;;;26.42;27.95;100023.69;5068460;28;45399;-75
2023/03/22 08:50:14;;;;;;;;;10.00;10.00;;;;;26.32;27.88;100026.81;5067587;28;45389;-77
2023/03/22 08:52:39;;;;;;;;;12.67;11.67;;;;;26.25;28.26;100038.72;5075350;28;46034;-74
2023/03/22 08:55:07;;;;;;;;;9.00;9.00;;;;;26.10;30.69;100042.94;5073061;27;45158;-76
2023/03/22 08:57:33;;;;;;;;;9.00;9.00;;;;;26.03;31.51;100040.56;5068398;28;45399;-77
2023/03/22 08:59:59;;;;;;;;;14.33;12.67;;;;;25.59;33.39;100044.97;5068562;28;45323;-77
2023/03/22 09:02:25;;;;;;;;;9.33;8.00;;;;;25.08;33.04;100013.97;5061085;28;45967;-76
2023/03/22 09:04:50;;;;;;;;;9.67;9.67;;;;;25.24;33.81;100057.03;5063335;28;45545;-76
2023/03/22 09:07:17;;;;;;;;;10.33;10.33;;;;;24.98;34.11;100047.31;5069698;28;45510;-76
2023/03/22 09:09:44;;;;;;;;;8.00;5.67;;;;;24.73;34.63;100066.03;5063456;28;45433;-76
2023/03/22 09:12:09;;;;;;;;;10.67;10.67;;;;;24.56;35.03;100064.84;5065525;28;45888;-76
2023/03/22 09:14:35;;;;;;;;;9.00;9.00;;;;;24.60;35.08;100069.16;5057925;28;45542;-76
2023/03/22 09:17:01;;;;;;;;;9.33;8.33;;;;;24.47;35.53;100062.50;5062982;28;45493;-76
2023/03/22 09:19:27;;;;;;;;;9.00;9.00;;;;;25.39;34.85;100063.63;5060112;28;45312;-77
2023/03/22 09:21:53;;;;;;;;;11.00;10.00;;;;;26.11;33.66;100057.16;5073287;27;46370;-76
2023/03/22 09:24:19;;;;;;;;;10.00;9.67;;;;;26.33;33.15;100043.75;5066169;28;46058;-73
2023/03/22 09:26:45;;;;;;;;;9.00;9.00;;;;;26.12;32.32;100056.22;5075586;28;45481;-76
2023/03/22 09:29:11;;;;;;;;;10.33;9.67;;;;;26.00;33.29;100065.63;5065418;28;45383;-77
2023/03/22 09:31:37;;;;;;;;;9.00;9.00;;;;;25.74;33.80;100072.03;5062004;28;45516;-77
2023/03/22 09:34:02;;;;;;;;;9.67;8.67;;;;;25.49;34.36;100086.38;5064337;28;45467;-75
2023/03/22 09:36:28;;;;;;;;;9.33;9.00;;;;;25.26;34.63;100079.22;5079551;28;45518;-76
2023/03/22 09:38:53;;;;;;;;;9.00;9.00;;;;;25.21;35.27;100073.19;5080278;28;45303;-76
2023/03/22 09:41:35;;;;;;;;;14.33;13.67;;;;;25.34;34.88;100089.63;5062622;28;45383;-70
2023/03/22 09:44:05;;;;;;;;;9.00;8.67;;;;;25.50;34.57;100096.13;5059270;28;45439;-76
2023/03/22 09:46:38;;;;;;;;;8.00;8.00;;;;;25.54;34.28;100091.53;5061626;28;45377;-77
2023/03/22 09:49:11;;;;;;;;;6.00;5.67;;;;;25.47;34.34;100098.94;5079632;28;45398;-76
2023/03/22 09:51:41;;;;;;;;;7.67;6.67;;;;;25.30;35.04;100090.69;5079175;28;45781;-75
2023/03/22 09:54:18;;;;;;;;;10.00;9.00;;;;;24.80;35.62;100084.47;5062533;28;45328;-75
2023/03/22 09:56:50;;;;;;;;;8.00;7.67;;;;;24.59;36.08;100095.91;5073495;28;45441;-76
2023/03/22 09:59:39;;;;;;;;;8.33;7.67;;;;;24.59;35.88;100093.22;5061732;28;45650;-77
2023/03/22 10:02:23;;;;;;;;;23.67;17.33;;;;;24.14;37.56;100094.72;5059237;28;45594;-75
2023/03/22 10:04:54;;;;;;;;;10.00;8.67;;;;;24.12;37.78;100088.56;5062005;28;45237;-77
2023/03/22 10:07:59;;;;;;;;;7.33;7.33;;;;;24.16;37.55;100092.03;5069723;28;45442;-76
2023/03/22 10:10:25;;;;;;;;;8.00;8.00;;;;;23.98;37.79;100082.81;5040572;28;45394;-75
2023/03/22 10:13:15;;;;;;;;;9.00;8.00;;;;;23.81;38.53;100091.34;5059715;28;46149;-76
2023/03/22 10:15:44;;;;;;;;;10.00;9.33;;;;;23.92;37.99;100083.03;5058952;28;45388;-75
2023/03/22 10:18:50;;;;;;;;;11.00;10.33;;;;;23.85;38.19;100094.81;5075266;28;45423;-77
2023/03/22 10:21:18;;;;;;;;;9.33;8.00;;;;;24.05;38.29;100088.81;5058055;28;45540;-75
2023/03/22 10:23:52;;;;;;;;;11.33;10.00;;;;;24.17;37.76;100086.63;5058755;28;46311;-76
2023/03/22 10:26:30;;;;;;;;;8.67;8.00;;;;;24.54;37.91;100087.19;5059659;28;45366;-76
2023/03/22 10:29:02;;;;;;;;;7.33;7.33;;;;;24.87;36.57;100084.22;5070963;28;45506;-77
2023/03/22 10:31:29;;;;;;;;;9.67;9.33;;;;;24.72;37.47;100080.34;5069353;28;45382;-76
2023/03/22 10:34:04;;;;;;;;;9.67;7.67;;;;;25.21;36.62;100075.84;5061923;28;46169;-77
2023/03/22 10:36:33;;;;;;;;;7.33;7.33;;;;;25.65;35.69;100067.94;5058359;28;45390;-77
2023/03/22 10:39:26;;;;;;;;;8.33;8.33;;;;;25.78;35.52;100066.50;5049331;28;45562;-77
2023/03/22 10:41:54;;;;;;;;;8.00;7.00;;;;;25.96;35.31;100064.03;5053102;28;45565;-77
2023/03/22 10:44:24;;;;;;;;;10.00;9.67;;;;;26.05;35.57;100050.25;5073501;28;46115;-77
2023/03/22 10:46:51;;;;;;;;;10.33;9.33;;;;;26.41;34.53;100063.00;5067500;28;45174;-77
2023/03/22 10:49:38;;;;;;;;;7.00;7.00;;;;;26.48;34.49;100047.53;5074036;28;45463;-77
2023/03/22 10:52:24;;;;;;;;;7.33;7.33;;;;;26.91;34.27;100046.53;5058444;28;45544;-77
2023/03/22 10:54:50;;;;;;;;;10.67;10.00;;;;;27.21;33.54;100043.38;5057646;28;45465;-77
2023/03/22 10:57:16;;;;;;;;;8.00;8.00;;;;;27.25;33.50;100044.13;5058190;28;45249;-77
2023/03/22 10:59:50;;;;;;;;;10.00;8.33;;;;;27.25;33.04;100039.63;5057899;28;45368;-78
2023/03/22 11:02:18;;;;;;;;;7.67;7.67;;;;;27.05;32.83;100008.34;5058729;28;45635;-77
2023/03/22 11:04:52;;;;;;;;;9.00;8.67;;;;;27.02;33.63;100042.47;5067417;28;45466;-77
2023/03/22 11:07:35;;;;;;;;;7.00;7.00;;;;;26.95;33.53;100039.22;5077614;28;45492;-77
2023/03/22 11:10:09;;;;;;;;;11.33;10.00;;;;;26.71;33.99;100039.38;5042079;28;45528;-76
2023/03/22 11:12:38;;;;;;;;;7.67;7.67;;;;;26.56;34.59;100040.03;5058084;28;45253;-77
2023/03/22 11:15:05;;;;;;;;;9.33;7.67;;;;;26.05;34.61;100036.88;5061294;28;46167;-77
2023/03/22 11:17:31;;;;;;;;;9.67;9.33;;;;;25.70;35.28;100032.94;5058068;28;45458;-77
2023/03/22 11:20:06;;;;;;;;;10.33;10.33;;;;;25.81;35.71;100036.06;5063988;28;45521;-78
2023/03/22 11:22:42;;;;;;;;;9.33;9.33;;;;;25.76;36.36;100036.25;5077793;28;45512;-77
2023/03/22 11:25:29;;;;;;;;;11.00;10.67;;;;;25.77;36.30;100023.75;5060962;28;46077;-77
2023/03/22 11:28:06;;;;;;;;;10.00;10.00;;;;;25.87;36.33;100022.44;5058091;28;45589;-74
2023/03/22 11:30:33;;;;;;;;;10.67;9.00;;;;;25.99;35.90;100018.41;5077599;28;46606;-76
2023/03/22 11:33:18;;;;;;;;;8.00;7.33;;;;;25.73;36.56;100000.75;5074976;28;45555;-75
2023/03/22 11:35:52;;;;;;;;;8.00;8.00;;;;;25.69;35.49;100017.84;5057422;28;45482;-77